createdAt,value
2018-04-11T00:01:46.492Z,100524.05
2018-04-11T00:04:14.016Z,100518.14
2018-04-11T00:06:41.567Z,100519.55
2018-04-11T00:09:09.096Z,100516.06
2018-04-11T00:11:36.733Z,100515.28
2018-04-11T00:14:04.247Z,100516.13
2018-04-11T00:16:31.858Z,100518.34
2018-04-11T00:18:59.390Z,100519.80
2018-04-11T00:21:26.906Z,100518.04
2018-04-11T00:23:54.418Z,100523.69
2018-04-11T00:26:21.952Z,100517.34
2018-04-11T00:28:49.475Z,100522.83
2018-04-11T00:31:17.098Z,100522.02
2018-04-11T00:33:44.636Z,100528.64
2018-04-11T00:36:12.159Z,100535.05
2018-04-11T00:38:39.675Z,100530.80
2018-04-11T00:41:07.187Z,100534.74
2018-04-11T00:43:34.807Z,100541.73
2018-04-11T00:46:02.375Z,100534.12
2018-04-11T00:48:29.894Z,100542.95
2018-04-11T00:50:57.484Z,100534.61
2018-04-11T00:53:27.667Z,100536.18
2018-04-11T00:55:55.270Z,100541.09
2018-04-11T00:58:22.782Z,100547.59
2018-04-11T01:00:50.383Z,100549.02
2018-04-11T01:03:17.949Z,100541.90
2018-04-11T01:05:45.474Z,100539.13
2018-04-11T01:08:13.031Z,100545.68
2018-04-11T01:10:40.615Z,100543.16
2018-04-11T01:13:08.171Z,100548.52
2018-04-11T01:15:35.716Z,100540.36
2018-04-11T01:18:03.316Z,100545.33
2018-04-11T01:20:30.936Z,100544.35
2018-04-11T01:22:58.532Z,100536.17
2018-04-11T01:25:26.078Z,100534.88
2018-04-11T01:27:53.651Z,100537.17
2018-04-11T01:30:21.179Z,100534.88
2018-04-11T01:32:48.702Z,100533.05
2018-04-11T01:35:16.331Z,100537.95
2018-04-11T01:37:43.878Z,100536.60
2018-04-11T01:40:11.404Z,100540.47
2018-04-11T01:42:38.941Z,100538.77
2018-04-11T01:45:06.469Z,100543.46
2018-04-11T01:47:33.995Z,100544.89
2018-04-11T01:50:01.516Z,100538.25
2018-04-11T01:52:29.030Z,100545.87
2018-04-11T01:54:56.598Z,100548.13
2018-04-11T01:57:24.170Z,100542.59
2018-04-11T01:59:51.724Z,100546.52
2018-04-11T02:02:19.243Z,100546.68
2018-04-11T02:04:46.834Z,100538.03
2018-04-11T02:07:14.365Z,100544.40
2018-04-11T02:09:41.987Z,100540.28
2018-04-11T02:12:09.496Z,100538.55
2018-04-11T02:14:37.043Z,100539.97
2018-04-11T02:17:04.634Z,100543.61
2018-04-11T02:19:32.194Z,100547.48
2018-04-11T02:21:59.764Z,100543.20
2018-04-11T02:24:27.310Z,100539.94
2018-04-11T02:26:54.847Z,100535.97
2018-04-11T02:29:22.370Z,100544.14
2018-04-11T02:31:50.010Z,100545.53
2018-04-11T02:34:17.535Z,100543.26
2018-04-11T02:36:45.083Z,100540.51
2018-04-11T02:39:12.690Z,100545.27
2018-04-11T02:41:40.251Z,100537.44
2018-04-11T02:44:07.798Z,100533.49
2018-04-11T02:46:35.372Z,100539.74
2018-04-11T02:49:02.895Z,100538.53
2018-04-11T02:51:30.485Z,100539.45
2018-04-11T02:53:58.015Z,100539.31
2018-04-11T02:56:25.541Z,100549.07
2018-04-11T02:58:53.054Z,100545.68
2018-04-11T03:01:20.595Z,100552.46
2018-04-11T03:03:48.124Z,100555.53
2018-04-11T03:06:15.675Z,100561.45
2018-04-11T03:08:43.206Z,100563.23
2018-04-11T03:11:10.764Z,100566.21
2018-04-11T03:13:38.292Z,100555.80
2018-04-11T03:16:05.820Z,100556.89
2018-04-11T03:18:33.435Z,100556.93
2018-04-11T03:21:01.002Z,100562.61
2018-04-11T03:23:28.524Z,100562.75
2018-04-11T03:25:56.051Z,100559.95
2018-04-11T03:28:23.686Z,100558.38
2018-04-11T03:30:51.211Z,100559.50
2018-04-11T03:33:18.791Z,100555.58
2018-04-11T03:35:46.319Z,100543.30
2018-04-11T03:38:13.851Z,100540.94
2018-04-11T03:40:41.471Z,100540.67
2018-04-11T03:43:09.000Z,100543.09
2018-04-11T03:45:36.638Z,100547.41
2018-04-11T03:48:04.151Z,100547.08
2018-04-11T03:50:31.683Z,100547.56
2018-04-11T03:52:59.252Z,100558.55
2018-04-11T03:55:26.843Z,100563.77
2018-04-11T03:57:54.397Z,100561.50
2018-04-11T04:00:21.968Z,100579.13
2018-04-11T04:02:49.522Z,100579.34
2018-04-11T04:05:17.087Z,100590.84
2018-04-11T04:07:44.606Z,100588.71
2018-04-11T04:10:12.207Z,100594.09
2018-04-11T04:12:39.762Z,100592.03
2018-04-11T04:15:19.295Z,100594.73
2018-04-11T04:17:58.879Z,100598.07
2018-04-11T04:20:36.438Z,100593.65
2018-04-11T04:23:03.990Z,100591.41
2018-04-11T04:25:31.532Z,100583.42
2018-04-11T04:27:59.127Z,100594.78
2018-04-11T04:30:26.634Z,100596.23
2018-04-11T04:32:54.202Z,100603.34
2018-04-11T04:35:21.805Z,100604.30
2018-04-11T04:37:49.351Z,100607.17
2018-04-11T04:40:16.883Z,100610.98
2018-04-11T04:42:44.412Z,100604.52
2018-04-11T04:45:11.942Z,100605.50
2018-04-11T04:47:39.503Z,100607.94
2018-04-11T04:50:07.063Z,100611.11
2018-04-11T04:52:34.578Z,100618.76
2018-04-11T04:55:02.183Z,100619.88
2018-04-11T04:57:29.727Z,100621.45
2018-04-11T04:59:57.268Z,100627.69
2018-04-11T05:02:24.820Z,100625.90
2018-04-11T05:04:52.423Z,100627.52
2018-04-11T05:07:19.954Z,100635.39
2018-04-11T05:09:47.472Z,100630.88
2018-04-11T05:12:15.099Z,100634.73
2018-04-11T05:14:42.665Z,100641.12
2018-04-11T05:17:10.224Z,100641.52
2018-04-11T05:19:37.783Z,100639.28
2018-04-11T05:22:05.300Z,100638.62
2018-04-11T05:24:32.859Z,100639.18
2018-04-11T05:27:00.464Z,100635.97
2018-04-11T05:29:27.978Z,100642.12
2018-04-11T05:31:55.521Z,100637.77
2018-04-11T05:34:23.144Z,100638.23
2018-04-11T05:36:50.659Z,100640.36
2018-04-11T05:39:18.263Z,100640.73
2018-04-11T05:41:45.791Z,100647.92
2018-04-11T05:44:13.383Z,100649.75
2018-04-11T05:46:40.944Z,100649.43
2018-04-11T05:49:08.458Z,100648.62
2018-04-11T05:51:36.167Z,100645.59
2018-04-11T05:54:03.697Z,100645.75
2018-04-11T05:56:31.222Z,100644.05
2018-04-11T05:58:58.833Z,100649.31
2018-04-11T06:01:26.391Z,100653.75
2018-04-11T06:03:53.950Z,100648.10
2018-04-11T06:06:21.522Z,100648.58
2018-04-11T06:08:49.055Z,100653.87
2018-04-11T06:11:16.642Z,100655.23
2018-04-11T06:13:44.190Z,100652.25
2018-04-11T06:16:11.729Z,100654.88
2018-04-11T06:18:39.322Z,100661.05
2018-04-11T06:21:06.843Z,100659.56
2018-04-11T06:23:34.412Z,100669.20
2018-04-11T06:26:02.008Z,100666.36
2018-04-11T06:28:29.552Z,100669.22
2018-04-11T06:30:57.078Z,100670.81
2018-04-11T06:33:24.646Z,100676.55
2018-04-11T06:35:52.349Z,100675.33
2018-04-11T06:38:19.876Z,100670.52
2018-04-11T06:40:47.400Z,100671.13
2018-04-11T06:43:14.979Z,100667.17
2018-04-11T06:45:42.585Z,100673.61
2018-04-11T06:48:10.116Z,100667.42
2018-04-11T06:50:37.710Z,100673.75
2018-04-11T06:53:05.236Z,100662.03
2018-04-11T06:55:32.781Z,100665.32
2018-04-11T06:58:00.311Z,100647.56
2018-04-11T07:00:27.835Z,100652.70
2018-04-11T07:02:55.365Z,100643.58
2018-04-11T07:05:22.983Z,100645.12
2018-04-11T07:07:50.631Z,100639.38
2018-04-11T07:10:18.181Z,100639.20
2018-04-11T07:12:45.752Z,100633.09
2018-04-11T07:15:13.294Z,100646.44
2018-04-11T07:17:40.823Z,100641.30
2018-04-11T07:20:08.359Z,100640.39
2018-04-11T07:22:35.896Z,100631.20
2018-04-11T07:25:03.430Z,100629.02
2018-04-11T07:27:30.968Z,100633.22
2018-04-11T07:29:58.523Z,100629.45
2018-04-11T07:32:26.115Z,100629.64
2018-04-11T07:34:53.660Z,100628.02
2018-04-11T07:37:21.245Z,100634.66
2018-04-11T07:39:48.777Z,100634.77
2018-04-11T07:42:16.392Z,100635.72
2018-04-11T07:44:43.914Z,100633.02
2018-04-11T07:47:11.492Z,100624.09
2018-04-11T07:49:39.050Z,100626.33
2018-04-11T07:52:06.576Z,100634.66
2018-04-11T07:54:34.167Z,100622.41
2018-04-11T07:57:01.726Z,100629.73
2018-04-11T07:59:29.275Z,100643.52
2018-04-11T08:01:56.823Z,100643.95
2018-04-11T08:04:24.343Z,100628.70
2018-04-11T08:06:51.869Z,100630.80
2018-04-11T08:09:19.430Z,100634.20
2018-04-11T08:11:46.990Z,100627.75
2018-04-11T08:14:14.554Z,100620.20
2018-04-11T08:16:42.076Z,100620.55
2018-04-11T08:19:09.603Z,100622.69
2018-04-11T08:21:37.344Z,100619.16
2018-04-11T08:24:04.312Z,100613.69
2018-04-11T08:26:31.837Z,100615.65
2018-04-11T08:28:59.367Z,100612.17
2018-04-11T08:31:26.907Z,100615.03
2018-04-11T08:33:54.470Z,100622.04
2018-04-11T08:36:22.077Z,100622.40
2018-04-11T08:38:49.623Z,100612.76
2018-04-11T08:41:17.147Z,100612.60
2018-04-11T08:43:44.758Z,100610.34
2018-04-11T08:46:12.293Z,100617.52
2018-04-11T08:48:39.819Z,100614.76
2018-04-11T08:51:07.347Z,100619.55
2018-04-11T08:53:34.897Z,100623.56
2018-04-11T08:56:02.446Z,100617.41
2018-04-11T08:58:29.980Z,100618.02
2018-04-11T09:00:57.590Z,100618.14
2018-04-11T09:03:25.245Z,100614.67
2018-04-11T09:05:52.897Z,100628.30
2018-04-11T09:08:20.431Z,100624.98
2018-04-11T09:10:48.042Z,100623.02
2018-04-11T09:13:15.581Z,100614.53
2018-04-11T09:15:43.149Z,100606.27
2018-04-11T09:18:10.799Z,100606.94
2018-04-11T09:20:38.327Z,100610.69
2018-04-11T09:23:05.847Z,100591.31
2018-04-11T09:25:33.481Z,100604.03
2018-04-11T09:28:01.007Z,100606.16
2018-04-11T09:30:28.602Z,100599.54
2018-04-11T09:32:56.972Z,100605.57
2018-04-11T09:35:24.546Z,100604.30
2018-04-11T09:37:52.107Z,100596.81
2018-04-11T09:40:19.631Z,100602.56
2018-04-11T09:42:47.157Z,100590.05
2018-04-11T09:45:14.771Z,100607.31
2018-04-11T09:47:42.312Z,100596.00
2018-04-11T09:50:09.828Z,100591.37
2018-04-11T09:52:37.432Z,100602.47
2018-04-11T09:55:05.013Z,100592.31
2018-04-11T09:57:32.580Z,100585.19
2018-04-11T10:00:00.111Z,100585.04
2018-04-11T10:02:27.627Z,100590.38
2018-04-11T10:04:55.250Z,100601.35
2018-04-11T10:07:22.778Z,100591.67
2018-04-11T10:09:50.312Z,100583.81
2018-04-11T10:12:17.829Z,100589.05
2018-04-11T10:14:45.368Z,100578.34
2018-04-11T10:17:12.959Z,100584.55
2018-04-11T10:19:40.523Z,100582.64
2018-04-11T10:22:08.038Z,100586.20
2018-04-11T10:24:35.598Z,100591.87
2018-04-11T10:27:03.188Z,100590.80
2018-04-11T10:29:30.751Z,100574.11
2018-04-11T10:31:58.335Z,100583.80
2018-04-11T10:34:25.867Z,100600.59
2018-04-11T10:36:53.399Z,100591.06
2018-04-11T10:39:20.932Z,100593.33
2018-04-11T10:41:48.538Z,100601.11
2018-04-11T10:44:16.110Z,100601.22
2018-04-11T10:46:43.691Z,100606.78
2018-04-11T10:49:11.215Z,100593.33
2018-04-11T10:51:38.786Z,100601.91
2018-04-11T10:54:06.366Z,100594.20
2018-04-11T10:56:33.910Z,100607.15
2018-04-11T10:59:01.472Z,100602.68
2018-04-11T11:01:29.031Z,100606.59
2018-04-11T11:03:56.600Z,100599.74
2018-04-11T11:06:24.151Z,100593.23
2018-04-11T11:08:51.699Z,100592.06
2018-04-11T11:11:19.220Z,100600.68
2018-04-11T11:13:46.740Z,100596.00
2018-04-11T11:16:14.268Z,100597.03
2018-04-11T11:18:41.820Z,100604.03
2018-04-11T11:21:09.351Z,100603.20
2018-04-11T11:23:36.870Z,100604.71
2018-04-11T11:26:04.396Z,100600.48
2018-04-11T11:28:31.990Z,100600.30
2018-04-11T11:30:59.547Z,100595.81
2018-04-11T11:33:27.072Z,100587.56
2018-04-11T11:35:54.604Z,100578.63
2018-04-11T11:38:22.140Z,100596.17
2018-04-11T11:40:49.683Z,100591.67
2018-04-11T11:43:17.323Z,100596.17
2018-04-11T11:45:44.923Z,100597.90
2018-04-11T11:48:12.447Z,100593.34
2018-04-11T11:50:40.028Z,100589.95
2018-04-11T11:53:07.543Z,100585.21
2018-04-11T11:55:35.100Z,100593.09
2018-04-11T11:58:02.620Z,100582.84
2018-04-11T12:00:30.284Z,100586.61
2018-04-11T12:02:57.815Z,100589.41
2018-04-11T12:05:25.404Z,100589.73
2018-04-11T12:07:52.926Z,100591.19
2018-04-11T12:10:20.531Z,100589.52
2018-04-11T12:12:48.167Z,100582.45
2018-04-11T12:15:15.698Z,100584.83
2018-04-11T12:17:43.305Z,100575.36
2018-04-11T12:20:10.862Z,100577.41
2018-04-11T12:22:38.412Z,100567.73
2018-04-11T12:25:05.983Z,100579.45
2018-04-11T12:27:33.541Z,100572.42
2018-04-11T12:30:01.106Z,100568.27
2018-04-11T12:32:28.636Z,100563.75
2018-04-11T12:34:56.155Z,100557.23
2018-04-11T12:37:23.682Z,100569.73
2018-04-11T12:39:51.210Z,100567.23
2018-04-11T12:42:18.735Z,100559.19
2018-04-11T12:44:46.365Z,100569.50
2018-04-11T12:47:13.891Z,100567.09
2018-04-11T12:49:41.423Z,100566.89
2018-04-11T12:52:09.041Z,100571.02
2018-04-11T12:54:36.570Z,100563.36
2018-04-11T12:57:04.165Z,100565.09
2018-04-11T12:59:31.730Z,100559.14
2018-04-11T13:01:59.259Z,100555.23
2018-04-11T13:04:26.847Z,100553.84
2018-04-11T13:06:54.401Z,100552.33
2018-04-11T13:09:21.934Z,100551.72
2018-04-11T13:11:49.460Z,100548.61
2018-04-11T13:14:17.019Z,100549.92
2018-04-11T13:16:44.631Z,100543.59
2018-04-11T13:19:12.171Z,100550.16
2018-04-11T13:21:39.721Z,100544.21
2018-04-11T13:24:07.319Z,100548.53
2018-04-11T13:26:34.871Z,100543.24
2018-04-11T13:29:02.441Z,100541.82
2018-04-11T13:31:30.006Z,100542.73
2018-04-11T13:33:57.531Z,100541.66
2018-04-11T13:36:25.051Z,100544.56
2018-04-11T13:38:52.570Z,100544.46
2018-04-11T13:41:20.135Z,100552.41
2018-04-11T13:43:47.655Z,100545.23
2018-04-11T13:46:15.271Z,100540.74
2018-04-11T13:48:42.791Z,100540.50
2018-04-11T13:51:10.326Z,100536.85
2018-04-11T13:53:37.863Z,100533.16
2018-04-11T13:56:05.380Z,100536.55
2018-04-11T13:58:33.067Z,100539.25
2018-04-11T14:01:00.609Z,100542.07
2018-04-11T14:03:28.336Z,100544.03
2018-04-11T14:05:55.871Z,100538.37
2018-04-11T14:08:23.543Z,100543.42
2018-04-11T14:10:51.035Z,100541.22
2018-04-11T14:13:18.556Z,100544.27
2018-04-11T14:15:46.075Z,100547.20
2018-04-11T14:18:13.655Z,100544.29
2018-04-11T14:20:41.176Z,100537.11
2018-04-11T14:23:08.755Z,100536.60
2018-04-11T14:25:36.280Z,100526.95
2018-04-11T14:28:03.848Z,100522.69
2018-04-11T14:30:31.416Z,100522.33
2018-04-11T14:32:58.941Z,100525.13
2018-04-11T14:35:26.527Z,100521.83
2018-04-11T14:37:54.088Z,100527.88
2018-04-11T14:40:21.617Z,100519.06
2018-04-11T14:42:49.150Z,100516.11
2018-04-11T14:45:16.664Z,100528.69
2018-04-11T14:47:44.204Z,100518.14
2018-04-11T14:50:11.726Z,100517.09
2018-04-11T14:52:39.288Z,100510.05
2018-04-11T14:55:06.813Z,100517.34
2018-04-11T14:57:34.495Z,100515.16
2018-04-11T15:00:02.104Z,100521.23
2018-04-11T15:02:29.629Z,100518.19
2018-04-11T15:04:57.143Z,100521.16
2018-04-11T15:07:24.659Z,100510.91
2018-04-11T15:09:52.295Z,100521.98
2018-04-11T15:12:19.819Z,100514.69
2018-04-11T15:14:47.429Z,100519.69
2018-04-11T15:17:14.956Z,100514.48
2018-04-11T15:19:42.502Z,100514.55
2018-04-11T15:22:10.032Z,100525.16
2018-04-11T15:24:37.670Z,100523.87
2018-04-11T15:27:05.231Z,100520.41
2018-04-11T15:29:32.791Z,100520.77
2018-04-11T15:32:00.311Z,100523.43
2018-04-11T15:34:27.876Z,100527.53
2018-04-11T15:36:55.395Z,100523.58
2018-04-11T15:39:22.915Z,100525.77
2018-04-11T15:41:50.456Z,100524.73
2018-04-11T15:44:18.020Z,100532.08
2018-04-11T15:46:45.610Z,100533.54
2018-04-11T15:49:13.135Z,100541.22
2018-04-11T15:51:40.730Z,100539.92
2018-04-11T15:54:08.275Z,100536.98
2018-04-11T15:56:35.807Z,100543.59
2018-04-11T15:59:03.339Z,100540.65
2018-04-11T16:01:30.892Z,100535.86
2018-04-11T16:03:58.432Z,100540.72
2018-04-11T16:06:25.956Z,100542.41
2018-04-11T16:08:53.534Z,100540.64
2018-04-11T16:11:21.074Z,100552.13
2018-04-11T16:13:48.640Z,100557.52
2018-04-11T16:16:16.249Z,100547.69
2018-04-11T16:18:43.876Z,100547.17
2018-04-11T16:21:11.437Z,100547.05
2018-04-11T16:23:38.962Z,100546.73
2018-04-11T16:26:06.495Z,100541.69
2018-04-11T16:28:34.029Z,100547.69
2018-04-11T16:31:01.597Z,100551.91
2018-04-11T16:33:29.254Z,100556.47
2018-04-11T16:35:56.776Z,100553.62
2018-04-11T16:38:24.301Z,100551.73
2018-04-11T16:40:51.919Z,100552.98
2018-04-11T16:43:19.496Z,100561.02
2018-04-11T16:45:47.020Z,100555.12
2018-04-11T16:48:14.609Z,100553.98
2018-04-11T16:50:42.140Z,100556.28
2018-04-11T16:53:09.665Z,100562.59
2018-04-11T16:55:37.293Z,100561.54
2018-04-11T16:58:04.839Z,100564.52
2018-04-11T17:00:32.379Z,100561.31
2018-04-11T17:02:59.894Z,100557.80
2018-04-11T17:05:27.535Z,100568.58
2018-04-11T17:07:55.080Z,100566.39
2018-04-11T17:10:22.658Z,100567.53
2018-04-11T17:12:50.180Z,100569.53
2018-04-11T17:15:17.740Z,100575.47
2018-04-11T17:17:45.287Z,100572.64
2018-04-11T17:20:12.891Z,100576.94
2018-04-11T17:22:52.348Z,100583.66
2018-04-11T17:25:31.789Z,100597.02
2018-04-11T17:28:11.295Z,100590.87
2018-04-11T17:30:50.853Z,100591.25
2018-04-11T17:33:18.379Z,100595.18
2018-04-11T17:35:45.977Z,100594.73
2018-04-11T17:38:13.491Z,100603.36
2018-04-11T17:40:41.096Z,100597.52
2018-04-11T17:43:08.651Z,100611.91
2018-04-11T17:45:36.167Z,100611.06
2018-04-11T17:48:03.694Z,100614.51
2018-04-11T17:50:31.215Z,100609.84
2018-04-11T17:52:58.796Z,100605.97
2018-04-11T17:55:26.319Z,100615.64
2018-04-11T17:57:53.839Z,100615.95
2018-04-11T18:00:21.396Z,100615.02
2018-04-11T18:02:49.020Z,100620.92
2018-04-11T18:05:16.579Z,100627.11
2018-04-11T18:07:44.108Z,100638.98
2018-04-11T18:10:11.637Z,100629.42
2018-04-11T18:12:39.172Z,100628.16
2018-04-11T18:15:06.720Z,100627.33
2018-04-11T18:17:34.296Z,100637.63
2018-04-11T18:20:01.817Z,100638.44
2018-04-11T18:22:29.343Z,100633.25
2018-04-11T18:24:56.951Z,100639.14
2018-04-11T18:27:24.528Z,100631.62
2018-04-11T18:29:52.124Z,100635.09
2018-04-11T18:32:19.652Z,100636.76
2018-04-11T18:34:47.212Z,100638.03
2018-04-11T18:37:14.768Z,100627.17
2018-04-11T18:39:42.343Z,100642.33
2018-04-11T18:42:09.931Z,100647.80
2018-04-11T18:44:37.460Z,100650.73
2018-04-11T18:47:05.116Z,100653.73
2018-04-11T18:49:32.676Z,100659.22
2018-04-11T18:52:00.199Z,100655.95
2018-04-11T18:54:27.719Z,100658.55
2018-04-11T18:56:55.249Z,100646.92
2018-04-11T18:59:22.790Z,100652.09
2018-04-11T19:01:50.317Z,100651.73
2018-04-11T19:04:17.840Z,100653.58
2018-04-11T19:06:45.494Z,100658.55
2018-04-11T19:09:13.052Z,100653.52
2018-04-11T19:11:40.568Z,100650.25
2018-04-11T19:14:08.104Z,100654.73
2018-04-11T19:16:35.647Z,100653.44
2018-04-11T19:19:03.188Z,100656.44
2018-04-11T19:21:30.708Z,100648.77
2018-04-11T19:23:58.244Z,100656.27
2018-04-11T19:26:25.788Z,100663.75
2018-04-11T19:28:53.317Z,100653.98
2018-04-11T19:31:20.875Z,100652.57
2018-04-11T19:33:48.451Z,100649.00
2018-04-11T19:36:16.009Z,100645.95
2018-04-11T19:38:43.546Z,100651.30
2018-04-11T19:41:11.132Z,100648.09
2018-04-11T19:43:38.655Z,100649.52
2018-04-11T19:46:06.217Z,100648.52
2018-04-11T19:48:33.749Z,100651.22
2018-04-11T19:51:01.321Z,100651.54
2018-04-11T19:53:28.906Z,100644.35
2018-04-11T19:55:56.478Z,100656.25
2018-04-11T19:58:24.015Z,100645.49
2018-04-11T20:00:51.611Z,100642.81
2018-04-11T20:03:19.144Z,100646.84
2018-04-11T20:05:46.659Z,100644.95
2018-04-11T20:08:14.312Z,100641.66
2018-04-11T20:10:41.907Z,100637.84
2018-04-11T20:13:09.523Z,100639.30
2018-04-11T20:15:37.042Z,100634.25
2018-04-11T20:18:04.571Z,100637.82
2018-04-11T20:20:32.138Z,100630.63
2018-04-11T20:22:59.727Z,100640.11
2018-04-11T20:25:27.244Z,100636.30
2018-04-11T20:27:54.760Z,100635.92
2018-04-11T20:30:22.300Z,100627.82
2018-04-11T20:32:49.887Z,100630.69
2018-04-11T20:35:17.436Z,100626.41
2018-04-11T20:37:44.969Z,100628.17
2018-04-11T20:40:12.573Z,100625.72
2018-04-11T20:42:40.109Z,100613.50
2018-04-11T20:45:07.719Z,100615.47
2018-04-11T20:47:35.248Z,100614.48
2018-04-11T20:50:02.920Z,100616.83
2018-04-11T20:52:30.453Z,100616.83
2018-04-11T20:54:58.038Z,100624.44
2018-04-11T20:57:25.568Z,100614.55
2018-04-11T20:59:53.157Z,100609.75
2018-04-11T21:02:20.717Z,100604.72
2018-04-11T21:04:48.278Z,100607.23
2018-04-11T21:07:15.837Z,100599.00
2018-04-11T21:09:43.352Z,100604.91
2018-04-11T21:12:10.913Z,100607.05
2018-04-11T21:14:38.447Z,100602.27
2018-04-11T21:17:05.973Z,100605.39
2018-04-11T21:19:33.641Z,100597.84
2018-04-11T21:22:01.187Z,100600.10
2018-04-11T21:24:28.742Z,100596.54
2018-04-11T21:26:56.272Z,100595.32
2018-04-11T21:29:23.836Z,100590.89
2018-04-11T21:31:51.359Z,100593.65
2018-04-11T21:34:18.895Z,100598.16
2018-04-11T21:36:46.424Z,100590.83
2018-04-11T21:39:13.999Z,100595.86
2018-04-11T21:41:41.576Z,100587.22
2018-04-11T21:44:09.135Z,100582.48
2018-04-11T21:46:36.684Z,100588.53
2018-04-11T21:49:04.212Z,100584.97
2018-04-11T21:51:31.739Z,100586.56
2018-04-11T21:53:59.269Z,100582.97
2018-04-11T21:56:26.818Z,100587.98
2018-04-11T21:58:54.378Z,100580.97
2018-04-11T22:01:21.951Z,100586.93
2018-04-11T22:03:49.500Z,100579.55
2018-04-11T22:06:17.014Z,100585.39
2018-04-11T22:08:44.562Z,100578.02
2018-04-11T22:11:12.179Z,100571.20
2018-04-11T22:13:39.718Z,100568.86
2018-04-11T22:16:07.239Z,100574.06
2018-04-11T22:18:34.794Z,100577.27
2018-04-11T22:21:02.391Z,100564.70
2018-04-11T22:23:29.948Z,100562.95
2018-04-11T22:25:57.550Z,100563.66
2018-04-11T22:28:25.067Z,100564.96
2018-04-11T22:30:52.668Z,100566.52
2018-04-11T22:33:20.200Z,100563.47
2018-04-11T22:35:47.759Z,100566.52
2018-04-11T22:38:15.280Z,100566.08
2018-04-11T22:40:42.915Z,100559.67
2018-04-11T22:43:10.436Z,100560.91
2018-04-11T22:45:37.965Z,100559.74
2018-04-11T22:48:05.591Z,100559.08
2018-04-11T22:50:33.119Z,100561.23
2018-04-11T22:53:00.708Z,100552.33
2018-04-11T22:55:28.231Z,100552.52
2018-04-11T22:57:55.764Z,100542.37
2018-04-11T23:00:23.289Z,100545.19
2018-04-11T23:02:50.811Z,100542.85
2018-04-11T23:05:18.348Z,100542.16
2018-04-11T23:07:45.877Z,100536.47
2018-04-11T23:10:13.400Z,100537.78
2018-04-11T23:12:40.943Z,100547.17
2018-04-11T23:15:08.508Z,100535.37
2018-04-11T23:17:36.076Z,100542.17
2018-04-11T23:20:03.616Z,100538.98
2018-04-11T23:22:31.159Z,100532.42
2018-04-11T23:24:58.687Z,100526.34
2018-04-11T23:27:26.216Z,100529.58
2018-04-11T23:29:53.763Z,100531.58
2018-04-11T23:32:22.527Z,100532.45
2018-04-11T23:34:50.053Z,100533.64
2018-04-11T23:37:17.599Z,100531.55
2018-04-11T23:39:45.179Z,100519.92
2018-04-11T23:42:12.739Z,100528.92
2018-04-11T23:44:40.251Z,100526.94
2018-04-11T23:47:07.846Z,100524.30
2018-04-11T23:49:35.413Z,100522.47
2018-04-11T23:52:02.931Z,100520.64
2018-04-11T23:54:30.460Z,100520.58
2018-04-11T23:56:58.092Z,100526.30
2018-04-11T23:59:25.644Z,100518.01
